LNG Golar Tundra — V7AF3 — position and weather

sailwx.info

Track history (hours):
 
Tides and Currents Weather Stations Pressure Air Temp Water Temp Dewpoint Dewpoint Depression Visibility Wind Speed Wind Dir Waves Ship Positions

LNG Golar Tundra

Last reported at 2017-Nov-17 04:30 UTC. Time now 2017-Nov-22 03:42 UTC.
Position N 01°15' E 104°05'.

Length 293 m; draft 11.5 m.

Type: Tanker. MMSI: 538004982.

Date/timePositionNaut miles runAvg speedWind from/ knotsBaromVisibWave heightAir tempDewpointWater temp
2017-Nov-17 04:30N 01°15' E 104°05'2 3.0
2017-Nov-17 03:50N 01°14' E 104°03'1 4.1
2017-Nov-17 03:30N 01°14' E 104°02'4 8.0
2017-Nov-17 03:00N 01°14' E 103°58'612.2
2017-Nov-17 02:30N 01°11' E 103°52'510.6
2017-Nov-17 02:00N 01°09' E 103°47'612.9
2017-Nov-17 01:30N 01°04' E 103°43'611.7
2017-Nov-17 01:00N 01°03' E 103°37'612.3
2017-Nov-17 00:30N 01°07' E 103°31'612.1
2017-Nov-17 00:00N 01°10' E 103°26'712.8
2017-Nov-16 23:27N 01°14' E 103°20'  
Track history (hours):
 
Tides and Currents Weather Stations Pressure Air Temp Water Temp Dewpoint Dewpoint Depression Visibility Wind Speed Wind Dir Waves Ship Positions

LNG Golar Tundra

Last reported at 2017-Nov-17 04:30 UTC. Time now 2017-Nov-22 03:42 UTC.
Position N 01°15' E 104°05'.

Length 293 m; draft 11.5 m.

Type: Tanker. MMSI: 538004982.

Date/timePositionNaut miles runAvg speedWind from/ knotsBaromVisibWave heightAir tempDewpointWater temp
2017-Nov-17 04:30N 01°15' E 104°05'2 3.0
2017-Nov-17 03:50N 01°14' E 104°03'1 4.1
2017-Nov-17 03:30N 01°14' E 104°02'4 8.0
2017-Nov-17 03:00N 01°14' E 103°58'612.2
2017-Nov-17 02:30N 01°11' E 103°52'510.6
2017-Nov-17 02:00N 01°09' E 103°47'612.9
2017-Nov-17 01:30N 01°04' E 103°43'611.7
2017-Nov-17 01:00N 01°03' E 103°37'612.3
2017-Nov-17 00:30N 01°07' E 103°31'612.1
2017-Nov-17 00:00N 01°10' E 103°26'712.8
2017-Nov-16 23:27N 01°14' E 103°20'  

Dump ship's entire track history